Time;durP1;ratioP1;P1;durP2;ratioP2;P2;SDS_P1;SDS_P2;PMS_P1;PMS_P2;Temp;Humidity;BMP_temperature;BMP_pressure;BME280_temperature;BME280_humidity;BME280_pressure;Samples;Min_cycle;Max_cycle;Signal;HPM_P1;HPM_P2
2022/04/07 00:00:56;;;;;;;2.08;0.90;;;9.10;97.20;;;;;;5016349;28;20110;-66
2022/04/07 00:03:21;;;;;;;1.60;0.95;;;9.00;97.40;;;;;;5033941;28;20018;-67
2022/04/07 00:05:47;;;;;;;1.20;0.80;;;9.00;97.80;;;;;;5029041;28;20083;-66
2022/04/07 00:08:12;;;;;;;1.42;1.00;;;8.80;98.00;;;;;;5035291;28;20424;-66
2022/04/07 00:10:38;;;;;;;2.42;1.02;;;8.70;98.00;;;;;;5024942;28;20358;-66
2022/04/07 00:13:04;;;;;;;2.42;1.50;;;8.60;98.00;;;;;;5018590;28;20037;-67
2022/04/07 00:15:30;;;;;;;1.52;0.95;;;8.60;98.00;;;;;;5015201;28;20129;-67
2022/04/07 00:17:57;;;;;;;2.20;1.08;;;8.70;98.00;;;;;;5016824;28;20419;-67
2022/04/07 00:20:23;;;;;;;8.02;3.97;;;8.70;98.00;;;;;;5018844;28;20041;-67
2022/04/07 00:22:50;;;;;;;2.40;1.10;;;8.70;98.00;;;;;;5043784;28;20021;-66
2022/04/07 00:25:16;;;;;;;4.60;2.13;;;8.60;98.00;;;;;;5017375;28;20030;-67
2022/04/07 00:27:42;;;;;;;4.30;1.80;;;8.50;98.00;;;;;;5025290;28;20035;-67
2022/04/07 00:30:11;;;;;;;5.22;2.65;;;8.40;98.00;;;;;;5040136;28;20026;-67
2022/04/07 00:32:41;;;;;;;2.42;1.50;;;8.30;97.80;;;;;;5015615;28;20034;-67
2022/04/07 00:35:08;;;;;;;3.90;1.42;;;8.10;97.70;;;;;;5024406;28;20022;-68
2022/04/07 00:37:34;;;;;;;2.70;1.25;;;8.00;96.90;;;;;;5018510;28;20025;-68
2022/04/07 00:40:01;;;;;;;2.33;1.40;;;7.90;95.60;;;;;;5024511;28;20351;-68
2022/04/07 00:42:29;;;;;;;3.72;1.50;;;7.80;95.80;;;;;;5020532;28;20025;-67
2022/04/07 00:44:57;;;;;;;3.45;1.83;;;7.70;95.20;;;;;;5025170;28;20034;-68
2022/04/07 00:47:24;;;;;;;4.47;2.05;;;7.70;95.70;;;;;;5016804;28;20030;-68
2022/04/07 00:49:49;;;;;;;3.35;1.60;;;7.70;95.20;;;;;;5026843;28;20037;-68
2022/04/07 00:52:17;;;;;;;2.85;1.48;;;7.80;97.50;;;;;;5028653;28;20034;-67
2022/04/07 00:54:43;;;;;;;4.88;2.00;;;7.80;97.20;;;;;;5023234;28;20288;-68
2022/04/07 00:57:10;;;;;;;3.75;1.50;;;7.80;97.00;;;;;;5022229;28;20045;-67
2022/04/07 00:59:38;;;;;;;4.25;1.70;;;7.80;97.20;;;;;;5018665;28;20091;-68
2022/04/07 01:02:03;;;;;;;3.28;1.63;;;7.80;96.90;;;;;;5031944;28;20061;-67
2022/04/07 01:04:29;;;;;;;4.40;1.70;;;7.70;96.80;;;;;;5033807;28;20389;-67
2022/04/07 01:06:55;;;;;;;2.88;1.45;;;7.70;97.00;;;;;;5046346;28;20322;-67
2022/04/07 01:09:21;;;;;;;2.80;1.48;;;7.70;97.00;;;;;;5032063;28;20040;-67
2022/04/07 01:11:48;;;;;;;3.28;1.58;;;7.70;97.20;;;;;;5026360;28;20437;-67
2022/04/07 01:14:14;;;;;;;2.80;1.60;;;7.70;96.80;;;;;;5024240;28;20052;-67
2022/04/07 01:16:40;;;;;;;3.58;1.75;;;7.80;97.40;;;;;;5024869;28;20097;-67
2022/04/07 01:19:06;;;;;;;3.17;1.70;;;7.80;97.40;;;;;;5027765;28;20140;-67
2022/04/07 01:21:33;;;;;;;4.07;1.45;;;7.80;97.60;;;;;;5031030;28;20029;-67
2022/04/07 01:24:07;;;;;;;3.67;1.70;;;7.80;97.30;;;;;;5022251;28;20030;-67
2022/04/07 01:26:34;;;;;;;;;;;7.80;97.00;;;;;;5025811;28;20033;-68
2022/04/07 01:29:01;;;;;;;3.58;1.80;;;7.70;97.00;;;;;;5030375;28;19931;-68
2022/04/07 01:31:27;;;;;;;2.97;1.73;;;7.70;97.60;;;;;;5031114;28;20422;-68
2022/04/07 01:33:56;;;;;;;3.70;1.70;;;7.70;98.00;;;;;;5038139;28;20037;-67
2022/04/07 01:36:21;;;;;;;2.85;1.60;;;7.70;98.00;;;;;;5029688;28;20104;-67
2022/04/07 01:38:48;;;;;;;3.10;1.40;;;7.70;98.00;;;;;;5023583;28;20109;-68
2022/04/07 01:41:14;;;;;;;3.28;1.50;;;7.70;98.00;;;;;;5025493;28;20029;-68
2022/04/07 01:43:41;;;;;;;2.33;1.30;;;7.70;98.00;;;;;;5033393;28;20033;-67
2022/04/07 01:46:10;;;;;;;3.35;1.50;;;7.70;98.00;;;;;;5031787;28;20402;-67
2022/04/07 01:48:36;;;;;;;2.20;1.20;;;7.70;98.00;;;;;;5019183;28;20092;-66
2022/04/07 01:51:02;;;;;;;4.05;1.55;;;7.70;98.00;;;;;;5021538;28;20687;-67
2022/04/07 01:53:29;;;;;;;4.20;1.67;;;7.70;98.00;;;;;;5034929;28;21124;-67
2022/04/07 01:55:55;;;;;;;3.03;1.40;;;7.70;98.00;;;;;;5025322;28;20304;-67
2022/04/07 01:58:22;;;;;;;5.18;1.48;;;7.70;98.00;;;;;;5027278;28;20069;-67
2022/04/07 02:00:48;;;;;;;2.65;1.33;;;7.80;98.00;;;;;;5022986;28;20053;-67
2022/04/07 02:03:13;;;;;;;5.80;1.45;;;7.80;98.00;;;;;;5025816;28;20434;-67
2022/04/07 02:05:42;;;;;;;2.88;1.23;;;7.90;98.00;;;;;;5026947;28;20037;-67
2022/04/07 02:08:17;;;;;;;2.70;1.20;;;7.90;98.00;;;;;;5020309;28;20045;-67
2022/04/07 02:10:43;;;;;;;2.53;1.30;;;7.90;98.00;;;;;;5025389;28;20050;-67
2022/04/07 02:13:08;;;;;;;2.53;1.20;;;7.90;98.00;;;;;;5017916;28;20034;-67
2022/04/07 02:15:35;;;;;;;3.70;1.20;;;7.80;98.00;;;;;;5030230;28;20273;-66
2022/04/07 02:18:01;;;;;;;3.30;1.13;;;7.90;98.00;;;;;;5027592;28;20026;-67
2022/04/07 02:20:30;;;;;;;2.55;1.17;;;7.80;98.00;;;;;;5029407;28;20315;-66
2022/04/07 02:22:57;;;;;;;2.40;1.17;;;7.80;97.60;;;;;;5031271;28;20115;-67
2022/04/07 02:25:27;;;;;;;1.95;1.10;;;7.80;97.70;;;;;;5030683;28;20029;-66
2022/04/07 02:27:54;;;;;;;2.70;1.30;;;7.80;97.50;;;;;;5033414;28;20423;-66
2022/04/07 02:30:19;;;;;;;3.85;1.33;;;7.80;97.70;;;;;;5024520;28;20426;-67
2022/04/07 02:32:48;;;;;;;2.58;1.40;;;7.80;97.40;;;;;;5029658;28;20033;-66
2022/04/07 02:35:14;;;;;;;2.35;1.40;;;7.80;97.30;;;;;;5030518;28;20041;-67
2022/04/07 02:37:43;;;;;;;2.20;1.20;;;7.70;97.30;;;;;;5032525;28;20021;-67
2022/04/07 02:40:09;;;;;;;3.70;1.23;;;7.70;97.00;;;;;;5023811;28;20045;-68
2022/04/07 02:42:35;;;;;;;2.70;1.40;;;7.70;97.20;;;;;;5020248;28;20034;-68
2022/04/07 02:45:01;;;;;;;3.50;1.55;;;7.60;97.20;;;;;;5027972;28;20030;-68
2022/04/07 02:47:35;;;;;;;2.63;1.30;;;7.70;96.80;;;;;;5025255;28;20026;-67
2022/04/07 02:50:04;;;;;;;2.55;1.38;;;7.70;96.80;;;;;;5031749;28;20330;-68
2022/04/07 02:52:33;;;;;;;3.80;1.60;;;7.70;96.70;;;;;;5034556;28;20034;-68
2022/04/07 02:54:59;;;;;;;2.85;1.40;;;7.70;96.80;;;;;;5022252;28;20116;-67
2022/04/07 02:57:31;;;;;;;3.25;1.50;;;7.80;96.70;;;;;;5035271;28;20101;-66
2022/04/07 03:00:00;;;;;;;2.20;1.38;;;7.90;96.50;;;;;;5026988;28;20029;-67
2022/04/07 03:02:27;;;;;;;3.42;1.85;;;7.90;96.20;;;;;;5024653;28;20025;-67
2022/04/07 03:04:53;;;;;;;2.92;1.45;;;8.00;95.90;;;;;;5034018;28;20028;-66
2022/04/07 03:07:19;;;;;;;2.70;1.60;;;8.00;95.90;;;;;;5025642;28;20044;-67
2022/04/07 03:09:45;;;;;;;2.58;1.20;;;8.00;95.70;;;;;;5016974;28;20029;-67
2022/04/07 03:12:13;;;;;;;2.60;1.40;;;8.00;95.50;;;;;;5020250;28;20034;-67
2022/04/07 03:14:39;;;;;;;2.28;1.17;;;8.00;95.70;;;;;;5017936;28;20072;-67
2022/04/07 03:17:05;;;;;;;2.95;1.33;;;8.00;95.60;;;;;;5027903;28;20310;-67
2022/04/07 03:19:31;;;;;;;2.00;1.20;;;8.00;95.40;;;;;;5025530;28;20125;-68
2022/04/07 03:21:57;;;;;;;4.18;1.67;;;8.00;95.40;;;;;;5022827;28;20053;-67
2022/04/07 03:24:24;;;;;;;4.43;1.45;;;8.00;95.30;;;;;;5029871;28;20036;-67
2022/04/07 03:26:50;;;;;;;3.38;1.38;;;7.90;95.40;;;;;;5030682;28;20045;-67
2022/04/07 03:29:16;;;;;;;4.47;1.88;;;7.90;95.80;;;;;;5025699;28;20022;-67
2022/04/07 03:31:42;;;;;;;3.97;1.50;;;8.00;95.40;;;;;;5031370;28;20030;-67
2022/04/07 03:34:08;;;;;;;2.63;1.30;;;8.00;95.40;;;;;;5040778;28;20075;-67
2022/04/07 03:36:33;;;;;;;2.78;1.45;;;8.10;95.30;;;;;;5032726;28;20026;-66
2022/04/07 03:39:02;;;;;;;4.05;1.50;;;8.10;95.10;;;;;;5027865;28;20030;-67
2022/04/07 03:41:28;;;;;;;4.65;1.50;;;8.20;94.90;;;;;;5029098;28;20058;-67
2022/04/07 03:43:55;;;;;;;3.20;1.42;;;8.10;95.00;;;;;;5026247;28;20095;-67
2022/04/07 03:46:21;;;;;;;2.42;1.40;;;8.10;95.10;;;;;;5024149;28;20029;-67
2022/04/07 03:48:49;;;;;;;4.53;1.98;;;7.90;95.40;;;;;;5022941;28;20369;-67
2022/04/07 03:51:15;;;;;;;2.80;1.50;;;7.90;95.50;;;;;;5025201;28;20033;-67
2022/04/07 03:53:41;;;;;;;4.63;1.60;;;7.90;95.50;;;;;;5027702;28;20445;-66
2022/04/07 03:56:06;;;;;;;3.25;1.40;;;7.90;95.70;;;;;;5033137;28;20037;-67
2022/04/07 03:58:32;;;;;;;2.92;1.30;;;7.80;95.80;;;;;;5026454;28;20065;-66
2022/04/07 04:00:58;;;;;;;2.95;1.20;;;7.80;95.90;;;;;;5027386;28;20323;-67
2022/04/07 04:03:24;;;;;;;4.80;1.98;;;7.80;96.00;;;;;;5028618;28;20331;-66
2022/04/07 04:05:50;;;;;;;2.42;1.40;;;7.80;95.90;;;;;;5026246;28;20037;-67
2022/04/07 04:08:15;;;;;;;2.30;1.20;;;7.80;96.10;;;;;;5019894;28;20378;-67
2022/04/07 04:10:41;;;;;;;2.85;1.40;;;7.90;95.70;;;;;;5021614;28;20053;-67
2022/04/07 04:13:06;;;;;;;2.97;1.42;;;7.90;95.90;;;;;;5031181;28;20025;-67
2022/04/07 04:15:32;;;;;;;2.25;1.10;;;7.90;95.40;;;;;;5029828;28;20033;-66
2022/04/07 04:17:58;;;;;;;2.67;1.20;;;8.00;95.30;;;;;;5025945;28;20047;-67
2022/04/07 04:20:24;;;;;;;1.80;1.00;;;8.00;95.40;;;;;;5018629;28;20378;-67
2022/04/07 04:22:52;;;;;;;2.53;1.08;;;8.00;95.00;;;;;;5018399;28;20029;-67
2022/04/07 04:25:18;;;;;;;2.25;1.27;;;8.10;94.70;;;;;;5030549;28;20116;-67
2022/04/07 04:27:43;;;;;;;1.85;1.00;;;8.10;94.50;;;;;;5029245;28;20080;-67
2022/04/07 04:30:10;;;;;;;1.60;1.10;;;8.10;94.30;;;;;;5028812;28;20030;-66
2022/04/07 04:32:36;;;;;;;1.70;0.98;;;8.00;94.30;;;;;;5024808;28;20104;-67
2022/04/07 04:35:03;;;;;;;2.45;1.00;;;8.00;94.10;;;;;;5027559;28;20121;-67
2022/04/07 04:37:28;;;;;;;1.73;0.90;;;8.00;93.80;;;;;;5037053;28;20108;-67
2022/04/07 04:39:54;;;;;;;1.75;1.00;;;8.10;93.70;;;;;;5032023;28;20112;-67
2022/04/07 04:42:21;;;;;;;1.85;1.02;;;8.00;93.70;;;;;;5027158;28;20025;-67
2022/04/07 04:44:47;;;;;;;2.17;1.05;;;8.00;93.40;;;;;;5023920;28;20030;-67
2022/04/07 04:47:13;;;;;;;1.95;0.90;;;8.00;93.60;;;;;;5018792;28;20126;-67
2022/04/07 04:49:42;;;;;;;1.75;0.90;;;8.10;93.40;;;;;;5026161;28;20113;-66
2022/04/07 04:52:09;;;;;;;1.48;0.90;;;8.20;93.10;;;;;;5036330;28;20046;-67
2022/04/07 04:54:34;;;;;;;1.90;1.00;;;8.30;93.20;;;;;;5032697;28;20108;-68
2022/04/07 04:57:00;;;;;;;1.90;0.90;;;8.30;93.10;;;;;;5037637;28;20064;-68
2022/04/07 04:59:26;;;;;;;1.27;0.90;;;8.40;92.60;;;;;;5031866;28;20105;-67
2022/04/07 05:01:52;;;;;;;1.60;0.82;;;8.50;92.30;;;;;;5038229;28;20369;-66
2022/04/07 05:04:18;;;;;;;1.88;0.90;;;8.50;92.40;;;;;;5029372;28;20044;-67
2022/04/07 05:06:43;;;;;;;2.03;0.88;;;8.50;92.20;;;;;;5017999;28;20026;-68
2022/04/07 05:09:09;;;;;;;2.10;0.90;;;8.60;92.10;;;;;;5026872;28;20050;-67
2022/04/07 05:11:35;;;;;;;1.55;0.80;;;8.60;91.80;;;;;;5037024;28;20044;-67
2022/04/07 05:14:01;;;;;;;1.55;0.80;;;8.70;91.60;;;;;;5032570;28;20053;-67
2022/04/07 05:16:26;;;;;;;1.17;0.70;;;8.70;91.70;;;;;;5018022;28;20014;-67
2022/04/07 05:18:52;;;;;;;1.20;0.80;;;8.70;91.80;;;;;;5023142;28;20025;-66
2022/04/07 05:21:18;;;;;;;2.95;1.35;;;8.70;91.80;;;;;;5038750;28;20034;-66
2022/04/07 05:23:44;;;;;;;1.85;1.00;;;8.70;91.90;;;;;;5031713;28;20034;-66
2022/04/07 05:26:12;;;;;;;2.30;1.00;;;8.70;92.20;;;;;;5020991;28;20018;-66
2022/04/07 05:28:39;;;;;;;2.25;1.20;;;8.70;92.10;;;;;;5019002;28;20026;-66
2022/04/07 05:31:04;;;;;;;1.02;0.70;;;8.70;91.90;;;;;;5017778;28;20022;-68
2022/04/07 05:33:30;;;;;;;1.85;0.98;;;8.70;91.60;;;;;;5017963;28;20394;-68
2022/04/07 05:35:56;;;;;;;2.45;0.95;;;8.80;91.30;;;;;;5018671;28;20075;-67
2022/04/07 05:38:21;;;;;;;1.60;1.00;;;8.80;91.30;;;;;;5037288;28;20021;-67
2022/04/07 05:40:47;;;;;;;1.15;0.80;;;8.80;91.60;;;;;;5026245;28;20521;-68
2022/04/07 05:43:13;;;;;;;2.53;0.80;;;8.80;91.60;;;;;;5022305;28;20534;-67
2022/04/07 05:45:40;;;;;;;1.42;0.90;;;8.80;91.70;;;;;;5015886;28;20036;-68
2022/04/07 05:48:06;;;;;;;1.23;0.77;;;8.80;91.80;;;;;;5018402;28;20030;-67
2022/04/07 05:50:32;;;;;;;1.58;0.80;;;8.80;91.40;;;;;;5018355;28;20028;-68
2022/04/07 05:52:58;;;;;;;0.98;0.80;;;8.90;90.80;;;;;;5018390;28;20037;-68
2022/04/07 05:55:23;;;;;;;1.10;0.70;;;8.90;90.40;;;;;;5018570;28;20030;-67
2022/04/07 05:57:49;;;;;;;3.80;0.80;;;8.90;90.50;;;;;;5020705;28;20132;-67
2022/04/07 06:00:18;;;;;;;0.73;0.70;;;9.00;89.80;;;;;;5021204;28;20045;-67
2022/04/07 06:02:44;;;;;;;1.52;0.80;;;9.10;89.40;;;;;;5019350;28;20311;-67
2022/04/07 06:05:16;;;;;;;1.83;0.80;;;9.10;89.10;;;;;;5032577;28;20080;-68
2022/04/07 06:07:42;;;;;;;1.50;0.88;;;9.20;88.80;;;;;;5018114;28;20029;-67
2022/04/07 06:10:08;;;;;;;2.55;1.25;;;9.30;88.70;;;;;;5018153;28;20034;-66
2022/04/07 06:12:34;;;;;;;2.30;1.00;;;9.30;88.60;;;;;;5017907;28;20041;-67
2022/04/07 06:15:00;;;;;;;2.15;1.00;;;9.30;88.80;;;;;;5021397;28;20024;-67
2022/04/07 06:17:36;;;;;;;3.67;0.90;;;9.30;89.20;;;;;;5029485;28;20018;-67
2022/04/07 06:20:03;;;;;;;1.38;0.93;;;9.30;88.60;;;;;;5019791;28;20419;-67
2022/04/07 06:22:29;;;;;;;4.18;1.10;;;9.30;88.50;;;;;;5022008;28;20370;-67
2022/04/07 06:24:54;;;;;;;1.80;1.10;;;9.30;88.40;;;;;;5019286;28;20022;-67
2022/04/07 06:27:20;;;;;;;1.23;0.80;;;9.40;88.80;;;;;;5018732;28;20038;-67
2022/04/07 06:29:45;;;;;;;3.50;0.80;;;9.50;88.00;;;;;;5031294;28;20087;-67
2022/04/07 06:32:11;;;;;;;0.75;0.70;;;9.40;88.10;;;;;;5019614;28;20026;-67
2022/04/07 06:34:37;;;;;;;1.02;0.70;;;9.40;88.10;;;;;;5026046;28;20410;-67
2022/04/07 06:37:03;;;;;;;2.63;0.90;;;9.40;87.50;;;;;;5018709;28;20022;-67
2022/04/07 06:39:28;;;;;;;3.05;0.80;;;9.40;87.60;;;;;;5020437;28;20026;-67
2022/04/07 06:41:54;;;;;;;0.73;0.60;;;9.40;87.50;;;;;;5036881;28;20030;-67
2022/04/07 06:44:20;;;;;;;2.28;0.65;;;9.50;87.70;;;;;;5022830;28;20026;-67
2022/04/07 06:46:46;;;;;;;1.60;0.70;;;9.60;87.30;;;;;;5031588;28;20025;-67
2022/04/07 06:49:11;;;;;;;2.40;0.70;;;9.60;87.50;;;;;;5023733;28;20442;-67
2022/04/07 06:51:37;;;;;;;1.27;0.73;;;9.60;87.20;;;;;;5021136;28;20026;-67
2022/04/07 06:54:03;;;;;;;1.08;0.70;;;9.80;86.90;;;;;;5025801;28;20026;-66
2022/04/07 06:56:29;;;;;;;2.00;0.70;;;9.90;86.50;;;;;;5024302;28;20449;-66
2022/04/07 06:58:55;;;;;;;2.42;0.70;;;10.00;86.40;;;;;;5022644;28;20117;-67
2022/04/07 07:01:20;;;;;;;1.25;0.70;;;10.00;86.00;;;;;;5019174;28;20104;-67
2022/04/07 07:03:46;;;;;;;1.45;0.80;;;9.90;86.30;;;;;;5021380;28;20632;-67
2022/04/07 07:06:12;;;;;;;1.80;0.70;;;9.90;86.70;;;;;;5018625;28;20033;-67
2022/04/07 07:08:38;;;;;;;0.80;0.63;;;9.80;86.90;;;;;;5023193;28;20395;-67
2022/04/07 07:11:03;;;;;;;1.15;0.70;;;9.70;87.40;;;;;;5020237;28;20040;-67
2022/04/07 07:13:29;;;;;;;1.10;0.80;;;9.70;87.20;;;;;;5027087;28;20113;-67
2022/04/07 07:15:55;;;;;;;1.25;0.80;;;9.70;87.30;;;;;;5018140;28;20046;-67
2022/04/07 07:18:21;;;;;;;0.80;0.60;;;9.80;87.00;;;;;;5016074;28;20032;-67
2022/04/07 07:20:47;;;;;;;1.20;0.70;;;9.70;87.40;;;;;;5024727;28;20033;-67
2022/04/07 07:23:15;;;;;;;2.42;0.80;;;9.70;87.70;;;;;;5019062;28;20304;-66
2022/04/07 07:25:40;;;;;;;1.17;0.70;;;9.80;87.50;;;;;;5018442;28;20049;-67
2022/04/07 07:28:06;;;;;;;1.20;0.75;;;9.80;87.20;;;;;;5023233;28;20060;-67
2022/04/07 07:30:33;;;;;;;1.10;0.80;;;9.80;87.50;;;;;;5028830;28;20041;-68
2022/04/07 07:32:58;;;;;;;3.35;0.80;;;9.70;87.60;;;;;;5034436;28;20028;-67
2022/04/07 07:35:25;;;;;;;2.30;0.90;;;9.70;87.50;;;;;;5021104;28;20025;-66
2022/04/07 07:37:52;;;;;;;1.20;0.77;;;9.90;87.20;;;;;;5020289;28;20045;-67
2022/04/07 07:40:18;;;;;;;2.83;0.80;;;10.00;86.70;;;;;;5016633;28;20414;-67
2022/04/07 07:42:44;;;;;;;1.58;0.90;;;10.10;86.90;;;;;;5016255;28;20091;-67
2022/04/07 07:45:10;;;;;;;3.03;0.90;;;10.30;86.60;;;;;;5017399;28;20026;-67
2022/04/07 07:47:36;;;;;;;1.30;0.70;;;10.30;86.30;;;;;;5016547;28;20358;-67
2022/04/07 07:50:03;;;;;;;2.40;0.90;;;10.40;85.90;;;;;;5032596;28;20300;-67
2022/04/07 07:52:28;;;;;;;1.17;0.70;;;10.50;86.00;;;;;;5020157;28;20045;-67
2022/04/07 07:54:56;;;;;;;2.33;0.70;;;10.40;85.80;;;;;;5016255;28;20034;-67
2022/04/07 07:57:22;;;;;;;2.40;0.85;;;10.60;85.80;;;;;;5017358;28;20018;-66
2022/04/07 07:59:50;;;;;;;1.20;0.70;;;10.50;85.70;;;;;;5023146;28;20415;-67
2022/04/07 08:02:16;;;;;;;1.35;0.77;;;10.60;85.90;;;;;;5015978;28;20042;-68
2022/04/07 08:04:41;;;;;;;2.05;0.80;;;10.60;86.30;;;;;;5022783;28;20076;-66
2022/04/07 08:07:07;;;;;;;2.35;0.90;;;10.40;86.30;;;;;;5022048;28;20407;-67
2022/04/07 08:09:32;;;;;;;1.20;0.60;;;10.30;86.80;;;;;;5016104;28;20057;-67
2022/04/07 08:12:02;;;;;;;2.25;1.27;;;10.50;87.00;;;;;;5016055;28;20072;-67
2022/04/07 08:14:28;;;;;;;3.13;0.70;;;10.70;86.50;;;;;;5016032;28;20053;-66
2022/04/07 08:16:54;;;;;;;3.75;0.80;;;10.70;86.30;;;;;;5014971;28;20360;-66
2022/04/07 08:19:20;;;;;;;1.77;0.80;;;10.60;86.20;;;;;;5016224;28;20060;-66
2022/04/07 08:21:47;;;;;;;1.20;0.70;;;10.50;86.70;;;;;;5033870;28;20060;-66
2022/04/07 08:24:12;;;;;;;3.10;0.80;;;10.70;86.60;;;;;;5035837;28;20032;-66
2022/04/07 08:26:38;;;;;;;2.03;0.80;;;10.80;85.90;;;;;;5034538;28;20426;-69
2022/04/07 08:29:04;;;;;;;3.67;0.98;;;10.70;85.70;;;;;;5035683;28;20049;-68
2022/04/07 08:31:30;;;;;;;2.85;0.80;;;10.90;86.20;;;;;;5034578;28;20025;-67
2022/04/07 08:33:55;;;;;;;6.10;1.13;;;11.10;85.50;;;;;;5035683;28;20068;-68
2022/04/07 08:36:21;;;;;;;1.95;0.70;;;11.10;85.20;;;;;;5034807;28;20067;-68
2022/04/07 08:38:46;;;;;;;1.30;0.70;;;11.10;85.90;;;;;;5015854;28;20026;-66
2022/04/07 08:41:12;;;;;;;1.15;0.70;;;11.10;85.30;;;;;;5015734;28;20030;-67
2022/04/07 08:43:53;;;;;;;1.98;0.60;;;11.10;85.80;;;;;;5015864;28;20030;-67
2022/04/07 08:46:18;;;;;;;2.05;0.77;;;11.20;85.40;;;;;;5014658;28;20415;-67
2022/04/07 08:48:44;;;;;;;0.90;0.63;;;11.10;85.90;;;;;;5015949;28;20036;-67
2022/04/07 08:51:11;;;;;;;0.85;0.60;;;11.20;85.70;;;;;;5015811;28;20062;-67
2022/04/07 08:53:40;;;;;;;1.42;0.60;;;11.40;85.40;;;;;;5020392;28;20022;-67
2022/04/07 08:56:07;;;;;;;1.05;0.55;;;12.30;83.20;;;;;;5035207;28;20041;-67
2022/04/07 08:58:33;;;;;;;1.08;0.60;;;12.60;82.00;;;;;;5035545;28;20548;-67
2022/04/07 09:00:59;;;;;;;1.38;0.60;;;12.80;81.30;;;;;;5034289;28;20041;-67
2022/04/07 09:03:25;;;;;;;3.33;0.70;;;12.50;81.30;;;;;;5035534;28;20029;-67
2022/04/07 09:05:59;;;;;;;2.35;0.77;;;12.20;82.60;;;;;;5035525;28;20441;-67
2022/04/07 09:08:36;;;;;;;0.80;0.50;;;12.00;83.40;;;;;;5035491;28;20032;-67
2022/04/07 09:11:03;;;;;;;1.50;0.70;;;12.00;82.60;;;;;;5023889;28;20124;-67
2022/04/07 09:13:39;;;;;;;1.98;0.63;;;11.70;84.80;;;;;;5015462;28;20030;-68
2022/04/07 09:16:12;;;;;;;1.38;0.68;;;11.40;87.10;;;;;;5021340;28;20419;-67
2022/04/07 09:18:40;;;;;;;1.65;1.00;;;10.80;89.40;;;;;;5035456;28;20025;-67
2022/04/07 09:21:15;;;;;;;1.83;0.80;;;10.60;90.30;;;;;;5037170;28;20115;-67
2022/04/07 09:23:42;;;;;;;1.90;0.70;;;10.60;89.70;;;;;;5038881;28;20029;-68
2022/04/07 09:26:15;;;;;;;1.90;0.80;;;10.50;90.20;;;;;;5029384;28;20021;-67
2022/04/07 09:28:41;;;;;;;1.55;0.75;;;10.80;90.10;;;;;;5038724;28;20021;-67
2022/04/07 09:31:15;;;;;;;1.25;0.68;;;11.20;88.80;;;;;;5025630;28;20088;-67
2022/04/07 09:33:42;;;;;;;3.70;0.77;;;12.00;86.60;;;;;;5030729;28;20481;-67
2022/04/07 09:36:10;;;;;;;5.28;0.80;;;12.80;83.40;;;;;;5027206;28;20079;-67
2022/04/07 09:38:37;;;;;;;1.80;0.52;;;12.80;82.50;;;;;;5018986;28;20018;-68
2022/04/07 09:41:15;;;;;;;3.42;0.80;;;12.80;81.60;;;;;;5020855;28;20117;-68
2022/04/07 09:43:44;;;;;;;2.05;0.80;;;12.40;82.40;;;;;;5018766;28;20034;-67
2022/04/07 09:46:20;;;;;;;1.45;0.80;;;12.20;83.90;;;;;;5031449;28;20033;-67
2022/04/07 09:49:04;;;;;;;1.15;0.60;;;12.20;83.20;;;;;;5038449;28;20446;-68
2022/04/07 09:51:37;;;;;;;4.15;0.80;;;12.50;81.40;;;;;;5038161;28;20036;-67
2022/04/07 09:54:07;;;;;;;1.63;0.70;;;12.40;81.90;;;;;;5038394;28;20029;-67
2022/04/07 09:56:33;;;;;;;2.80;0.80;;;12.30;82.00;;;;;;5038157;28;20093;-68
2022/04/07 09:59:05;;;;;;;1.77;0.70;;;11.80;83.70;;;;;;5038017;28;20021;-67
2022/04/07 10:01:35;;;;;;;1.13;0.70;;;11.50;84.30;;;;;;5017891;28;20025;-67
2022/04/07 10:04:03;;;;;;;1.58;0.73;;;11.30;85.30;;;;;;5018395;28;20030;-67
2022/04/07 10:06:31;;;;;;;2.10;0.80;;;11.40;85.10;;;;;;5018311;28;20439;-67
2022/04/07 10:09:01;;;;;;;1.48;0.90;;;11.40;85.00;;;;;;5018307;28;20398;-66
2022/04/07 10:11:29;;;;;;;1.13;0.70;;;11.60;84.90;;;;;;5017756;28;20046;-67
2022/04/07 10:13:58;;;;;;;1.17;0.60;;;11.70;84.70;;;;;;5017073;28;20159;-67
2022/04/07 10:16:25;;;;;;;4.50;0.80;;;11.70;85.90;;;;;;5036798;28;20028;-67
2022/04/07 10:19:16;;;;;;;0.50;0.50;;;11.50;85.60;;;;;;5037827;28;20048;-67
2022/04/07 10:22:01;;;;;;;1.02;0.93;;;11.50;85.00;;;;;;5037372;28;20038;-67
2022/04/07 10:24:31;;;;;;;1.00;0.70;;;11.60;85.90;;;;;;5037830;28;20020;-68
2022/04/07 10:27:01;;;;;;;1.77;0.70;;;11.70;84.60;;;;;;5037632;28;20317;-67
2022/04/07 10:29:28;;;;;;;1.58;0.57;;;11.50;84.80;;;;;;5036200;28;20457;-67
2022/04/07 10:32:12;;;;;;;2.05;0.70;;;11.70;84.30;;;;;;5036572;28;20075;-67
2022/04/07 10:34:42;;;;;;;0.80;0.60;;;11.70;84.00;;;;;;5035881;28;20033;-67
2022/04/07 10:37:09;;;;;;;3.85;1.10;;;11.80;83.90;;;;;;5022726;28;20033;-66
2022/04/07 10:39:39;;;;;;;0.85;0.55;;;11.90;83.90;;;;;;5018863;28;20025;-66
2022/04/07 10:42:05;;;;;;;0.80;0.60;;;12.00;83.10;;;;;;5017498;28;20041;-66
2022/04/07 10:44:33;;;;;;;1.02;0.60;;;11.90;83.30;;;;;;5025953;28;20476;-66
2022/04/07 10:47:07;;;;;;;0.50;0.50;;;12.00;83.30;;;;;;5036102;28;20132;-66
2022/04/07 10:49:33;;;;;;;1.85;0.63;;;12.00;82.80;;;;;;5034449;28;20017;-66
2022/04/07 10:52:04;;;;;;;0.90;0.50;;;12.10;82.90;;;;;;5034482;28;20052;-66
2022/04/07 10:54:30;;;;;;;0.50;0.50;;;12.10;82.90;;;;;;5018218;28;20030;-66
2022/04/07 10:56:59;;;;;;;0.60;0.50;;;12.20;82.70;;;;;;5027237;28;20036;-66
2022/04/07 10:59:34;;;;;;;1.73;0.57;;;12.20;82.80;;;;;;5036325;28;20017;-66
2022/04/07 11:02:14;;;;;;;2.38;0.73;;;12.20;83.00;;;;;;5027875;28;20026;-66
2022/04/07 11:05:08;;;;;;;1.73;0.70;;;12.30;82.60;;;;;;5033554;28;20030;-66
2022/04/07 11:07:52;;;;;;;0.47;0.43;;;12.30;82.80;;;;;;5020355;28;20030;-67
2022/04/07 11:10:39;;;;;;;2.00;0.70;;;12.20;83.00;;;;;;5036833;28;20029;-66
2022/04/07 11:13:11;;;;;;;0.68;0.60;;;12.00;83.90;;;;;;5036516;28;20430;-66
2022/04/07 11:15:42;;;;;;;1.65;0.60;;;11.90;84.20;;;;;;5035146;28;20424;-66
2022/04/07 11:18:32;;;;;;;2.25;0.60;;;11.90;84.30;;;;;;5026340;28;20030;-66
2022/04/07 11:21:12;;;;;;;1.08;0.52;;;12.20;84.40;;;;;;5018676;28;20030;-68
2022/04/07 11:23:49;;;;;;;1.70;0.60;;;12.30;83.30;;;;;;5033076;28;20361;-67
2022/04/07 11:26:26;;;;;;;1.15;0.60;;;12.70;82.20;;;;;;5029170;28;20120;-65
2022/04/07 11:29:12;;;;;;;2.67;0.50;;;12.70;81.80;;;;;;5027111;28;20029;-67
2022/04/07 11:32:08;;;;;;;1.50;0.57;;;12.50;82.30;;;;;;5033523;28;20469;-67
2022/04/07 11:34:39;;;;;;;1.60;0.80;;;13.00;82.20;;;;;;5019508;28;20030;-66
2022/04/07 11:37:14;;;;;;;0.95;0.50;;;13.10;81.40;;;;;;5033891;28;20052;-66
2022/04/07 11:40:03;;;;;;;0.75;0.65;;;12.60;83.30;;;;;;5024805;28;20032;-67
2022/04/07 11:42:31;;;;;;;0.70;0.50;;;12.40;84.20;;;;;;5030687;28;20036;-67
2022/04/07 11:44:58;;;;;;;4.55;0.60;;;12.30;85.70;;;;;;5017140;28;20072;-66
2022/04/07 11:47:36;;;;;;;0.70;0.50;;;11.80;86.70;;;;;;5016138;28;20053;-66
2022/04/07 11:50:06;;;;;;;0.50;0.50;;;11.90;87.10;;;;;;5018725;28;20289;-67
2022/04/07 11:52:35;;;;;;;0.73;0.50;;;12.20;86.60;;;;;;5015412;28;20080;-67
2022/04/07 11:55:04;;;;;;;0.82;0.80;;;12.60;85.40;;;;;;5016196;28;20033;-66
2022/04/07 11:57:32;;;;;;;1.10;0.60;;;12.50;85.30;;;;;;5016386;28;20022;-66
2022/04/07 12:00:04;;;;;;;1.65;0.68;;;12.30;85.30;;;;;;5016236;28;20433;-66
2022/04/07 12:02:30;;;;;;;0.50;0.40;;;12.40;85.50;;;;;;5014963;28;20022;-67
2022/04/07 12:05:01;;;;;;;1.98;0.60;;;12.70;84.30;;;;;;5018582;28;20113;-66
2022/04/07 12:07:29;;;;;;;2.17;0.60;;;12.50;85.60;;;;;;5036111;28;20034;-66
2022/04/07 12:09:56;;;;;;;0.73;0.57;;;12.00;86.50;;;;;;5035903;28;20044;-65
2022/04/07 12:12:24;;;;;;;1.00;0.60;;;11.90;85.90;;;;;;5035844;28;20136;-65
2022/04/07 12:14:53;;;;;;;0.88;0.60;;;11.70;85.30;;;;;;5035809;28;20314;-67
2022/04/07 12:17:19;;;;;;;0.63;0.50;;;11.60;86.00;;;;;;5033830;28;20017;-66
2022/04/07 12:19:46;;;;;;;1.00;0.57;;;11.70;86.20;;;;;;5032697;28;20069;-66
2022/04/07 12:22:13;;;;;;;0.60;0.60;;;11.70;86.00;;;;;;5016063;28;20033;-66
2022/04/07 12:24:57;;;;;;;1.08;0.50;;;11.50;85.80;;;;;;5016202;28;20085;-66
2022/04/07 12:27:36;;;;;;;0.70;0.60;;;11.60;86.40;;;;;;5016172;28;20037;-66
2022/04/07 12:30:04;;;;;;;0.80;0.60;;;11.80;85.70;;;;;;5015867;28;20415;-65
2022/04/07 12:32:43;;;;;;;1.50;0.80;;;11.60;85.80;;;;;;5014897;28;20362;-65
2022/04/07 12:35:09;;;;;;;0.85;0.57;;;11.50;87.00;;;;;;5016042;28;20109;-67
2022/04/07 12:37:39;;;;;;;0.65;0.50;;;11.60;87.70;;;;;;5018216;28;20442;-66
2022/04/07 12:40:14;;;;;;;0.68;0.50;;;11.40;87.20;;;;;;5034662;28;20033;-66
2022/04/07 12:42:53;;;;;;;2.75;0.60;;;11.00;89.50;;;;;;5035797;28;20029;-67
2022/04/07 12:45:19;;;;;;;0.68;0.50;;;10.90;89.40;;;;;;5035490;28;20100;-66
2022/04/07 12:48:22;;;;;;;0.55;0.50;;;11.00;89.40;;;;;;5034279;28;20550;-65
2022/04/07 12:50:48;;;;;;;0.60;0.60;;;11.20;88.00;;;;;;5033616;28;20026;-67
2022/04/07 12:53:37;;;;;;;0.90;0.50;;;11.40;87.60;;;;;;5025022;28;20042;-66
2022/04/07 12:56:27;;;;;;;0.63;0.50;;;12.00;86.20;;;;;;5019753;28;20060;-67
2022/04/07 12:59:09;;;;;;;1.48;0.50;;;12.00;85.40;;;;;;5019524;28;20101;-66